KHQU

Details ICAO KHQU (HQU)
Name THOMSON MCDUFFIE CO
Region United States
Timezone America/New_York (UTC-5.0)
Plans Departing 3
Arriving 3
Stats Elevation 498 ft / 152 m (AMSL)
Location 33.529713° -82.516464°
Runways 1
Magnetic Variation 6.377° W
Sunrise 2017-12-18 12:30:15 UTC / 2017-12-18 07:30:15 Local
Sunset 2017-12-18 22:26:01 UTC / 2017-12-18 17:26:01 Local
Advertisement - Login to hide

Runways

ID Width Length Bearing (true) Bearing (mag) Surface Threshold Offset Overrun Length
10 100 ft / 30 m 5,190 ft / 1,582 m 92.66° 99.04° Asphalt 0 ft / 0 m 0 ft / 0 m
28 100 ft / 30 m 5,190 ft / 1,582 m 272.67° 279.05° Asphalt 200 ft / 61 m 0 ft / 0 m

Approach Navaids

Runway Type Ident Frequency Range Bearing (true) Bearing (mag) Slope Elevation
10 Localiser IAAQ 110.75 MHz 18 nm / 33 km 92.67° 99.05° - 500 ft / 152 m (AMSL)
10 Glidescope IAAQ 110.75 MHz 10 nm / 19 km 92.66° 99.04° 3.00° 453 ft / 138 m (AMSL)

Map

Weather


0- 5 10 15 20 25 30 35+ Temperature / ° C

Clouds and Precipitation
Forecast for 2017-12-18 18:00 UTC. Updated 2 hours ago

Ground ~20,000 ft ~40,000 ft Winds

METAR

KHQU 181435Z AUTO 00000KT 10SM OVC008 12/09 A3025 RMK AO2 T01220086

TAF

Not found

Frequencies

Recorded 120.62 MHz AWOS 3
Approach 126.80 MHz AUGUSTA APP/DEP
Unicom 122.80 MHz CTAF/UNICOM
Warning: Do not use this data for real-world aviation or navigation. No guarantee of current accuracy is given.